sensor_id;sensor_type;location;lat;lon;timestamp;P1;durP1;ratioP1;P2;durP2;ratioP2
70450;SDS011;58869;51.982;4.450;2023-03-05T00:00:55;4.45;;;3.08;;
70450;SDS011;58869;51.982;4.450;2023-03-05T00:03:29;5.03;;;3.48;;
70450;SDS011;58869;51.982;4.450;2023-03-05T00:09:17;5.34;;;3.66;;
70450;SDS011;58869;51.982;4.450;2023-03-05T00:11:52;6.17;;;4.13;;
70450;SDS011;58869;51.982;4.450;2023-03-05T00:14:17;5.59;;;3.75;;
70450;SDS011;58869;51.982;4.450;2023-03-05T00:16:49;4.89;;;3.29;;
70450;SDS011;58869;51.982;4.450;2023-03-05T00:19:14;4.61;;;3.10;;
70450;SDS011;58869;51.982;4.450;2023-03-05T00:21:43;4.22;;;2.85;;
70450;SDS011;58869;51.982;4.450;2023-03-05T00:24:16;4.75;;;3.16;;
70450;SDS011;58869;51.982;4.450;2023-03-05T00:26:43;4.86;;;3.23;;
70450;SDS011;58869;51.982;4.450;2023-03-05T00:29:10;5.62;;;3.74;;
70450;SDS011;58869;51.982;4.450;2023-03-05T00:31:39;5.38;;;3.63;;
70450;SDS011;58869;51.982;4.450;2023-03-05T00:34:17;5.62;;;3.82;;
70450;SDS011;58869;51.982;4.450;2023-03-05T00:36:47;5.27;;;3.72;;
70450;SDS011;58869;51.982;4.450;2023-03-05T00:42:33;4.10;;;2.85;;
70450;SDS011;58869;51.982;4.450;2023-03-05T00:45:03;4.30;;;2.98;;
70450;SDS011;58869;51.982;4.450;2023-03-05T00:47:29;4.06;;;2.76;;
70450;SDS011;58869;51.982;4.450;2023-03-05T00:49:55;3.99;;;2.75;;
70450;SDS011;58869;51.982;4.450;2023-03-05T00:52:23;4.25;;;2.88;;
70450;SDS011;58869;51.982;4.450;2023-03-05T00:57:23;4.05;;;2.73;;
70450;SDS011;58869;51.982;4.450;2023-03-05T00:59:48;3.78;;;2.53;;
70450;SDS011;58869;51.982;4.450;2023-03-05T01:02:20;4.11;;;2.76;;
70450;SDS011;58869;51.982;4.450;2023-03-05T01:05:00;3.49;;;2.37;;
70450;SDS011;58869;51.982;4.450;2023-03-05T01:07:26;3.47;;;2.32;;
70450;SDS011;58869;51.982;4.450;2023-03-05T01:09:51;3.62;;;2.38;;
70450;SDS011;58869;51.982;4.450;2023-03-05T01:12:18;3.87;;;2.56;;
70450;SDS011;58869;51.982;4.450;2023-03-05T01:14:50;3.79;;;2.51;;
70450;SDS011;58869;51.982;4.450;2023-03-05T01:17:15;4.15;;;2.80;;
70450;SDS011;58869;51.982;4.450;2023-03-05T01:19:47;4.50;;;3.07;;
70450;SDS011;58869;51.982;4.450;2023-03-05T01:22:12;4.02;;;2.77;;
70450;SDS011;58869;51.982;4.450;2023-03-05T01:24:50;3.64;;;2.52;;
70450;SDS011;58869;51.982;4.450;2023-03-05T01:27:31;4.00;;;2.81;;
70450;SDS011;58869;51.982;4.450;2023-03-05T01:29:57;4.35;;;3.06;;
70450;SDS011;58869;51.982;4.450;2023-03-05T01:32:35;4.35;;;3.10;;
70450;SDS011;58869;51.982;4.450;2023-03-05T01:35:01;4.02;;;3.00;;
70450;SDS011;58869;51.982;4.450;2023-03-05T01:38:01;4.45;;;3.37;;
70450;SDS011;58869;51.982;4.450;2023-03-05T01:40:36;3.77;;;2.88;;
70450;SDS011;58869;51.982;4.450;2023-03-05T01:46:21;3.20;;;2.54;;
70450;SDS011;58869;51.982;4.450;2023-03-05T01:54:35;3.37;;;2.66;;
70450;SDS011;58869;51.982;4.450;2023-03-05T01:57:26;3.00;;;2.40;;
70450;SDS011;58869;51.982;4.450;2023-03-05T02:00:42;2.94;;;2.37;;
70450;SDS011;58869;51.982;4.450;2023-03-05T02:03:31;2.91;;;2.31;;
70450;SDS011;58869;51.982;4.450;2023-03-05T02:05:58;3.14;;;2.44;;
70450;SDS011;58869;51.982;4.450;2023-03-05T02:08:24;3.45;;;2.62;;
70450;SDS011;58869;51.982;4.450;2023-03-05T02:10:50;3.23;;;2.46;;
70450;SDS011;58869;51.982;4.450;2023-03-05T02:13:20;3.45;;;2.58;;
70450;SDS011;58869;51.982;4.450;2023-03-05T02:15:50;3.17;;;2.42;;
70450;SDS011;58869;51.982;4.450;2023-03-05T02:18:20;3.04;;;2.38;;
70450;SDS011;58869;51.982;4.450;2023-03-05T02:23:39;3.17;;;2.46;;
70450;SDS011;58869;51.982;4.450;2023-03-05T02:26:06;3.10;;;2.44;;
70450;SDS011;58869;51.982;4.450;2023-03-05T02:28:53;3.62;;;2.81;;
70450;SDS011;58869;51.982;4.450;2023-03-05T02:31:27;3.60;;;2.78;;
70450;SDS011;58869;51.982;4.450;2023-03-05T02:33:53;3.44;;;2.63;;
70450;SDS011;58869;51.982;4.450;2023-03-05T02:36:20;3.87;;;2.90;;
70450;SDS011;58869;51.982;4.450;2023-03-05T02:38:48;3.60;;;2.70;;
70450;SDS011;58869;51.982;4.450;2023-03-05T02:41:14;3.29;;;2.48;;
70450;SDS011;58869;51.982;4.450;2023-03-05T02:43:56;3.45;;;2.60;;
70450;SDS011;58869;51.982;4.450;2023-03-05T02:46:25;3.69;;;2.83;;
70450;SDS011;58869;51.982;4.450;2023-03-05T02:52:14;4.03;;;3.36;;
70450;SDS011;58869;51.982;4.450;2023-03-05T02:54:39;2.80;;;2.30;;
70450;SDS011;58869;51.982;4.450;2023-03-05T02:57:05;2.97;;;2.38;;
70450;SDS011;58869;51.982;4.450;2023-03-05T02:59:40;3.57;;;2.91;;
70450;SDS011;58869;51.982;4.450;2023-03-05T03:02:12;3.74;;;3.07;;
70450;SDS011;58869;51.982;4.450;2023-03-05T03:04:50;3.45;;;2.86;;
70450;SDS011;58869;51.982;4.450;2023-03-05T03:07:15;2.89;;;2.46;;
70450;SDS011;58869;51.982;4.450;2023-03-05T03:09:41;2.87;;;2.46;;
70450;SDS011;58869;51.982;4.450;2023-03-05T03:12:07;2.74;;;2.35;;
70450;SDS011;58869;51.982;4.450;2023-03-05T03:14:34;3.17;;;2.77;;
70450;SDS011;58869;51.982;4.450;2023-03-05T03:17:19;2.90;;;2.53;;
70450;SDS011;58869;51.982;4.450;2023-03-05T03:19:48;2.83;;;2.46;;
70450;SDS011;58869;51.982;4.450;2023-03-05T03:22:16;2.96;;;2.57;;
70450;SDS011;58869;51.982;4.450;2023-03-05T03:24:47;2.56;;;2.18;;
70450;SDS011;58869;51.982;4.450;2023-03-05T03:27:22;2.44;;;2.07;;
70450;SDS011;58869;51.982;4.450;2023-03-05T03:29:51;2.31;;;1.96;;
70450;SDS011;58869;51.982;4.450;2023-03-05T03:32:17;2.37;;;2.02;;
70450;SDS011;58869;51.982;4.450;2023-03-05T03:34:43;2.34;;;1.98;;
70450;SDS011;58869;51.982;4.450;2023-03-05T03:37:24;2.68;;;2.21;;
70450;SDS011;58869;51.982;4.450;2023-03-05T03:40:02;1.98;;;1.61;;
70450;SDS011;58869;51.982;4.450;2023-03-05T03:42:36;2.34;;;1.89;;
70450;SDS011;58869;51.982;4.450;2023-03-05T03:45:13;1.85;;;1.49;;
70450;SDS011;58869;51.982;4.450;2023-03-05T03:50:45;1.78;;;1.42;;
70450;SDS011;58869;51.982;4.450;2023-03-05T03:53:17;1.52;;;1.20;;
70450;SDS011;58869;51.982;4.450;2023-03-05T03:56:03;1.53;;;1.20;;
70450;SDS011;58869;51.982;4.450;2023-03-05T03:58:38;1.48;;;1.15;;
70450;SDS011;58869;51.982;4.450;2023-03-05T04:01:03;1.89;;;1.44;;
70450;SDS011;58869;51.982;4.450;2023-03-05T04:03:34;1.53;;;1.17;;
70450;SDS011;58869;51.982;4.450;2023-03-05T04:06:00;1.05;;;0.81;;
70450;SDS011;58869;51.982;4.450;2023-03-05T04:11:12;1.05;;;0.80;;
70450;SDS011;58869;51.982;4.450;2023-03-05T04:13:37;1.14;;;0.87;;
70450;SDS011;58869;51.982;4.450;2023-03-05T04:16:17;0.98;;;0.73;;
70450;SDS011;58869;51.982;4.450;2023-03-05T04:18:44;1.19;;;0.88;;
70450;SDS011;58869;51.982;4.450;2023-03-05T04:21:20;1.04;;;0.76;;
70450;SDS011;58869;51.982;4.450;2023-03-05T04:23:52;1.28;;;0.93;;
70450;SDS011;58869;51.982;4.450;2023-03-05T04:26:26;1.17;;;0.83;;
70450;SDS011;58869;51.982;4.450;2023-03-05T04:28:52;1.36;;;0.95;;
70450;SDS011;58869;51.982;4.450;2023-03-05T04:31:17;1.31;;;0.90;;
70450;SDS011;58869;51.982;4.450;2023-03-05T04:33:44;1.33;;;0.91;;
70450;SDS011;58869;51.982;4.450;2023-03-05T04:36:12;1.85;;;1.25;;
70450;SDS011;58869;51.982;4.450;2023-03-05T04:41:27;1.46;;;1.00;;
70450;SDS011;58869;51.982;4.450;2023-03-05T04:46:55;1.41;;;0.97;;
70450;SDS011;58869;51.982;4.450;2023-03-05T04:49:36;1.23;;;0.85;;
70450;SDS011;58869;51.982;4.450;2023-03-05T04:52:13;1.22;;;0.84;;
70450;SDS011;58869;51.982;4.450;2023-03-05T04:54:39;1.34;;;0.93;;
70450;SDS011;58869;51.982;4.450;2023-03-05T04:57:15;1.64;;;1.13;;
70450;SDS011;58869;51.982;4.450;2023-03-05T05:03:04;1.67;;;1.15;;
70450;SDS011;58869;51.982;4.450;2023-03-05T05:05:31;1.76;;;1.22;;
70450;SDS011;58869;51.982;4.450;2023-03-05T05:08:15;1.77;;;1.24;;
70450;SDS011;58869;51.982;4.450;2023-03-05T05:10:56;1.24;;;0.88;;
70450;SDS011;58869;51.982;4.450;2023-03-05T05:13:26;1.88;;;1.35;;
70450;SDS011;58869;51.982;4.450;2023-03-05T05:15:52;1.77;;;1.28;;
70450;SDS011;58869;51.982;4.450;2023-03-05T05:18:17;1.95;;;1.43;;
70450;SDS011;58869;51.982;4.450;2023-03-05T05:20:43;1.70;;;1.29;;
70450;SDS011;58869;51.982;4.450;2023-03-05T05:23:18;1.63;;;1.27;;
70450;SDS011;58869;51.982;4.450;2023-03-05T05:25:43;1.74;;;1.36;;
70450;SDS011;58869;51.982;4.450;2023-03-05T05:28:18;1.72;;;1.35;;
70450;SDS011;58869;51.982;4.450;2023-03-05T05:30:44;1.46;;;1.15;;
70450;SDS011;58869;51.982;4.450;2023-03-05T05:33:19;1.75;;;1.35;;
70450;SDS011;58869;51.982;4.450;2023-03-05T05:35:54;1.48;;;1.14;;
70450;SDS011;58869;51.982;4.450;2023-03-05T05:38:20;1.67;;;1.31;;
70450;SDS011;58869;51.982;4.450;2023-03-05T05:41:05;1.66;;;1.30;;
70450;SDS011;58869;51.982;4.450;2023-03-05T05:43:38;1.59;;;1.28;;
70450;SDS011;58869;51.982;4.450;2023-03-05T05:46:18;1.40;;;1.15;;
70450;SDS011;58869;51.982;4.450;2023-03-05T05:48:45;1.53;;;1.24;;
70450;SDS011;58869;51.982;4.450;2023-03-05T05:51:13;1.74;;;1.43;;
70450;SDS011;58869;51.982;4.450;2023-03-05T05:53:43;1.64;;;1.36;;
70450;SDS011;58869;51.982;4.450;2023-03-05T05:56:12;1.29;;;1.11;;
70450;SDS011;58869;51.982;4.450;2023-03-05T05:58:39;1.47;;;1.29;;
70450;SDS011;58869;51.982;4.450;2023-03-05T06:01:35;1.48;;;1.33;;
70450;SDS011;58869;51.982;4.450;2023-03-05T06:04:02;1.39;;;1.24;;
70450;SDS011;58869;51.982;4.450;2023-03-05T06:06:40;1.46;;;1.30;;
70450;SDS011;58869;51.982;4.450;2023-03-05T06:09:14;1.55;;;1.36;;
70450;SDS011;58869;51.982;4.450;2023-03-05T06:11:40;1.63;;;1.42;;
70450;SDS011;58869;51.982;4.450;2023-03-05T06:17:02;1.74;;;1.53;;
70450;SDS011;58869;51.982;4.450;2023-03-05T06:19:43;1.80;;;1.58;;
70450;SDS011;58869;51.982;4.450;2023-03-05T06:22:14;1.84;;;1.68;;
70450;SDS011;58869;51.982;4.450;2023-03-05T06:24:39;1.64;;;1.50;;
70450;SDS011;58869;51.982;4.450;2023-03-05T06:27:17;1.47;;;1.30;;
70450;SDS011;58869;51.982;4.450;2023-03-05T06:29:52;1.08;;;0.91;;
70450;SDS011;58869;51.982;4.450;2023-03-05T06:32:21;1.00;;;0.83;;
70450;SDS011;58869;51.982;4.450;2023-03-05T06:34:53;1.20;;;0.96;;
70450;SDS011;58869;51.982;4.450;2023-03-05T06:37:22;1.35;;;1.04;;
70450;SDS011;58869;51.982;4.450;2023-03-05T06:39:54;1.46;;;1.11;;
70450;SDS011;58869;51.982;4.450;2023-03-05T06:42:33;1.24;;;0.92;;
70450;SDS011;58869;51.982;4.450;2023-03-05T06:45:19;1.44;;;1.06;;
70450;SDS011;58869;51.982;4.450;2023-03-05T06:47:59;1.31;;;0.95;;
70450;SDS011;58869;51.982;4.450;2023-03-05T06:50:24;1.42;;;1.03;;
70450;SDS011;58869;51.982;4.450;2023-03-05T06:52:56;1.55;;;1.12;;
70450;SDS011;58869;51.982;4.450;2023-03-05T06:55:21;1.43;;;1.02;;
70450;SDS011;58869;51.982;4.450;2023-03-05T06:57:50;1.11;;;0.80;;
70450;SDS011;58869;51.982;4.450;2023-03-05T07:00:16;1.12;;;0.81;;
70450;SDS011;58869;51.982;4.450;2023-03-05T07:02:57;1.54;;;1.11;;
70450;SDS011;58869;51.982;4.450;2023-03-05T07:05:22;1.52;;;1.10;;
70450;SDS011;58869;51.982;4.450;2023-03-05T07:07:54;1.73;;;1.27;;
70450;SDS011;58869;51.982;4.450;2023-03-05T07:13:19;1.39;;;1.01;;
70450;SDS011;58869;51.982;4.450;2023-03-05T07:15:47;1.49;;;1.10;;
70450;SDS011;58869;51.982;4.450;2023-03-05T07:18:13;1.46;;;1.08;;
70450;SDS011;58869;51.982;4.450;2023-03-05T07:20:38;1.43;;;1.09;;
70450;SDS011;58869;51.982;4.450;2023-03-05T07:25:42;1.45;;;1.10;;
70450;SDS011;58869;51.982;4.450;2023-03-05T07:28:08;1.34;;;1.01;;
70450;SDS011;58869;51.982;4.450;2023-03-05T07:33:23;1.62;;;1.24;;
70450;SDS011;58869;51.982;4.450;2023-03-05T07:35:52;1.51;;;1.16;;
70450;SDS011;58869;51.982;4.450;2023-03-05T07:41:21;1.98;;;1.57;;
70450;SDS011;58869;51.982;4.450;2023-03-05T07:56:35;1.38;;;1.20;;
70450;SDS011;58869;51.982;4.450;2023-03-05T07:59:03;1.41;;;1.22;;
70450;SDS011;58869;51.982;4.450;2023-03-05T08:01:39;1.56;;;1.33;;
70450;SDS011;58869;51.982;4.450;2023-03-05T08:04:06;1.60;;;1.38;;
70450;SDS011;58869;51.982;4.450;2023-03-05T08:06:43;1.64;;;1.40;;
70450;SDS011;58869;51.982;4.450;2023-03-05T08:09:11;1.36;;;1.14;;
70450;SDS011;58869;51.982;4.450;2023-03-05T08:11:42;1.50;;;1.25;;
70450;SDS011;58869;51.982;4.450;2023-03-05T08:14:16;1.76;;;1.47;;
70450;SDS011;58869;51.982;4.450;2023-03-05T08:16:42;1.75;;;1.49;;
70450;SDS011;58869;51.982;4.450;2023-03-05T08:19:20;1.50;;;1.29;;
70450;SDS011;58869;51.982;4.450;2023-03-05T08:21:46;1.37;;;1.17;;
70450;SDS011;58869;51.982;4.450;2023-03-05T08:24:14;1.21;;;1.03;;
70450;SDS011;58869;51.982;4.450;2023-03-05T08:26:58;1.50;;;1.26;;
70450;SDS011;58869;51.982;4.450;2023-03-05T08:29:24;1.62;;;1.37;;
70450;SDS011;58869;51.982;4.450;2023-03-05T08:31:54;1.32;;;1.11;;
70450;SDS011;58869;51.982;4.450;2023-03-05T08:34:21;1.36;;;1.13;;
70450;SDS011;58869;51.982;4.450;2023-03-05T08:37:12;1.54;;;1.28;;
70450;SDS011;58869;51.982;4.450;2023-03-05T08:39:41;1.45;;;1.20;;
70450;SDS011;58869;51.982;4.450;2023-03-05T08:42:12;1.52;;;1.27;;
70450;SDS011;58869;51.982;4.450;2023-03-05T08:44:38;2.15;;;1.76;;
70450;SDS011;58869;51.982;4.450;2023-03-05T08:50:22;1.71;;;1.44;;
70450;SDS011;58869;51.982;4.450;2023-03-05T08:52:57;1.67;;;1.39;;
70450;SDS011;58869;51.982;4.450;2023-03-05T08:55:35;1.52;;;1.24;;
70450;SDS011;58869;51.982;4.450;2023-03-05T09:01:40;2.18;;;1.74;;
70450;SDS011;58869;51.982;4.450;2023-03-05T09:04:23;2.31;;;1.91;;
70450;SDS011;58869;51.982;4.450;2023-03-05T09:06:55;1.42;;;1.19;;
70450;SDS011;58869;51.982;4.450;2023-03-05T09:09:21;1.53;;;1.27;;
70450;SDS011;58869;51.982;4.450;2023-03-05T09:11:48;1.33;;;1.09;;
70450;SDS011;58869;51.982;4.450;2023-03-05T09:17:11;1.13;;;0.90;;
70450;SDS011;58869;51.982;4.450;2023-03-05T09:29:11;1.02;;;0.80;;
70450;SDS011;58869;51.982;4.450;2023-03-05T09:31:55;1.23;;;0.99;;
70450;SDS011;58869;51.982;4.450;2023-03-05T09:34:36;0.99;;;0.81;;
70450;SDS011;58869;51.982;4.450;2023-03-05T10:01:58;1.72;;;1.20;;
70450;SDS011;58869;51.982;4.450;2023-03-05T10:04:46;2.50;;;1.73;;
70450;SDS011;58869;51.982;4.450;2023-03-05T10:07:28;1.87;;;1.31;;
70450;SDS011;58869;51.982;4.450;2023-03-05T10:10:09;1.88;;;1.30;;
70450;SDS011;58869;51.982;4.450;2023-03-05T10:22:18;1.84;;;1.31;;
70450;SDS011;58869;51.982;4.450;2023-03-05T10:40:00;1.81;;;1.29;;
70450;SDS011;58869;51.982;4.450;2023-03-05T10:52:13;1.57;;;1.19;;
70450;SDS011;58869;51.982;4.450;2023-03-05T10:54:53;1.60;;;1.23;;
70450;SDS011;58869;51.982;4.450;2023-03-05T10:57:37;1.41;;;1.11;;
70450;SDS011;58869;51.982;4.450;2023-03-05T11:00:16;1.12;;;0.89;;
70450;SDS011;58869;51.982;4.450;2023-03-05T11:24:13;1.15;;;0.87;;
70450;SDS011;58869;51.982;4.450;2023-03-05T11:30:41;1.22;;;0.91;;
70450;SDS011;58869;51.982;4.450;2023-03-05T11:42:57;1.16;;;0.86;;
70450;SDS011;58869;51.982;4.450;2023-03-05T11:45:27;1.07;;;0.78;;
70450;SDS011;58869;51.982;4.450;2023-03-05T11:54:47;1.17;;;0.83;;
70450;SDS011;58869;51.982;4.450;2023-03-05T12:35:03;1.24;;;0.99;;
70450;SDS011;58869;51.982;4.450;2023-03-05T12:44:05;0.81;;;0.67;;
70450;SDS011;58869;51.982;4.450;2023-03-05T12:46:37;1.30;;;1.06;;
70450;SDS011;58869;51.982;4.450;2023-03-05T12:53:17;1.12;;;0.89;;
70450;SDS011;58869;51.982;4.450;2023-03-05T12:55:55;1.36;;;1.06;;
70450;SDS011;58869;51.982;4.450;2023-03-05T12:59:23;1.51;;;1.21;;
70450;SDS011;58869;51.982;4.450;2023-03-05T13:02:01;1.28;;;1.03;;
70450;SDS011;58869;51.982;4.450;2023-03-05T13:11:36;1.32;;;1.10;;
70450;SDS011;58869;51.982;4.450;2023-03-05T13:32:37;1.63;;;1.31;;
70450;SDS011;58869;51.982;4.450;2023-03-05T13:35:21;1.92;;;1.49;;
70450;SDS011;58869;51.982;4.450;2023-03-05T13:38:20;1.48;;;1.14;;
70450;SDS011;58869;51.982;4.450;2023-03-05T13:51:22;1.37;;;1.01;;
70450;SDS011;58869;51.982;4.450;2023-03-05T13:56:23;0.96;;;0.70;;
70450;SDS011;58869;51.982;4.450;2023-03-05T13:58:53;1.19;;;0.89;;
70450;SDS011;58869;51.982;4.450;2023-03-05T14:01:43;1.02;;;0.77;;
70450;SDS011;58869;51.982;4.450;2023-03-05T14:15:25;1.07;;;0.78;;
70450;SDS011;58869;51.982;4.450;2023-03-05T14:18:26;1.09;;;0.80;;
70450;SDS011;58869;51.982;4.450;2023-03-05T14:21:46;0.92;;;0.68;;
70450;SDS011;58869;51.982;4.450;2023-03-05T14:24:25;1.07;;;0.79;;
70450;SDS011;58869;51.982;4.450;2023-03-05T14:27:05;1.10;;;0.80;;
70450;SDS011;58869;51.982;4.450;2023-03-05T14:29:44;0.91;;;0.66;;
70450;SDS011;58869;51.982;4.450;2023-03-05T14:36:10;1.12;;;0.83;;
70450;SDS011;58869;51.982;4.450;2023-03-05T14:38:38;1.08;;;0.82;;
70450;SDS011;58869;51.982;4.450;2023-03-05T14:41:19;1.07;;;0.82;;
70450;SDS011;58869;51.982;4.450;2023-03-05T14:46:52;1.04;;;0.80;;
70450;SDS011;58869;51.982;4.450;2023-03-05T15:10:07;1.11;;;0.93;;
70450;SDS011;58869;51.982;4.450;2023-03-05T15:12:55;0.70;;;0.58;;
70450;SDS011;58869;51.982;4.450;2023-03-05T15:21:29;0.77;;;0.63;;
70450;SDS011;58869;51.982;4.450;2023-03-05T15:23:54;0.69;;;0.57;;
70450;SDS011;58869;51.982;4.450;2023-03-05T15:26:20;0.80;;;0.66;;
70450;SDS011;58869;51.982;4.450;2023-03-05T15:39:28;5.88;;;5.83;;
70450;SDS011;58869;51.982;4.450;2023-03-05T15:42:00;1.01;;;1.01;;
70450;SDS011;58869;51.982;4.450;2023-03-05T16:19:29;1.61;;;1.61;;
70450;SDS011;58869;51.982;4.450;2023-03-05T17:22:02;1.20;;;1.20;;
70450;SDS011;58869;51.982;4.450;2023-03-05T17:24:38;1.00;;;1.00;;
70450;SDS011;58869;51.982;4.450;2023-03-05T17:27:08;1.37;;;1.36;;
70450;SDS011;58869;51.982;4.450;2023-03-05T17:29:43;2.21;;;2.20;;
70450;SDS011;58869;51.982;4.450;2023-03-05T17:32:10;4.07;;;4.07;;
70450;SDS011;58869;51.982;4.450;2023-03-05T17:34:54;2.89;;;2.89;;
70450;SDS011;58869;51.982;4.450;2023-03-05T17:37:21;1.25;;;1.25;;
70450;SDS011;58869;51.982;4.450;2023-03-05T17:39:50;1.11;;;1.11;;
70450;SDS011;58869;51.982;4.450;2023-03-05T17:42:27;0.74;;;0.74;;
70450;SDS011;58869;51.982;4.450;2023-03-05T17:45:00;0.90;;;0.90;;
70450;SDS011;58869;51.982;4.450;2023-03-05T17:47:41;0.63;;;0.63;;
70450;SDS011;58869;51.982;4.450;2023-03-05T17:50:08;0.63;;;0.62;;
70450;SDS011;58869;51.982;4.450;2023-03-05T17:52:46;0.66;;;0.64;;
70450;SDS011;58869;51.982;4.450;2023-03-05T17:55:27;0.60;;;0.57;;
70450;SDS011;58869;51.982;4.450;2023-03-05T17:57:59;0.68;;;0.64;;
70450;SDS011;58869;51.982;4.450;2023-03-05T18:00:26;1.46;;;1.40;;
70450;SDS011;58869;51.982;4.450;2023-03-05T18:19:01;1.57;;;1.55;;
70450;SDS011;58869;51.982;4.450;2023-03-05T18:21:36;1.56;;;1.53;;
70450;SDS011;58869;51.982;4.450;2023-03-05T18:29:55;1.69;;;1.64;;
70450;SDS011;58869;51.982;4.450;2023-03-05T18:32:35;1.63;;;1.58;;
70450;SDS011;58869;51.982;4.450;2023-03-05T18:35:04;1.49;;;1.44;;
70450;SDS011;58869;51.982;4.450;2023-03-05T18:37:30;1.31;;;1.27;;
70450;SDS011;58869;51.982;4.450;2023-03-05T18:40:11;1.26;;;1.23;;
70450;SDS011;58869;51.982;4.450;2023-03-05T18:48:36;1.34;;;1.29;;
70450;SDS011;58869;51.982;4.450;2023-03-05T18:51:02;1.68;;;1.63;;
70450;SDS011;58869;51.982;4.450;2023-03-05T18:56:52;1.36;;;1.32;;
70450;SDS011;58869;51.982;4.450;2023-03-05T18:59:34;1.38;;;1.33;;
70450;SDS011;58869;51.982;4.450;2023-03-05T19:02:13;1.40;;;1.34;;
70450;SDS011;58869;51.982;4.450;2023-03-05T19:10:43;3.24;;;3.16;;
70450;SDS011;58869;51.982;4.450;2023-03-05T19:13:10;3.26;;;3.22;;
70450;SDS011;58869;51.982;4.450;2023-03-05T19:15:58;2.44;;;2.42;;
70450;SDS011;58869;51.982;4.450;2023-03-05T20:20:28;2.75;;;2.75;;
70450;SDS011;58869;51.982;4.450;2023-03-05T20:29:41;2.61;;;2.61;;
70450;SDS011;58869;51.982;4.450;2023-03-05T20:32:06;2.44;;;2.44;;
70450;SDS011;58869;51.982;4.450;2023-03-05T20:34:32;2.53;;;2.53;;
70450;SDS011;58869;51.982;4.450;2023-03-05T20:36:57;2.66;;;2.66;;
70450;SDS011;58869;51.982;4.450;2023-03-05T20:39:29;2.43;;;2.43;;
70450;SDS011;58869;51.982;4.450;2023-03-05T20:42:01;2.65;;;2.65;;
70450;SDS011;58869;51.982;4.450;2023-03-05T20:44:42;2.57;;;2.57;;
70450;SDS011;58869;51.982;4.450;2023-03-05T20:47:07;2.70;;;2.70;;
70450;SDS011;58869;51.982;4.450;2023-03-05T20:50:26;2.86;;;2.86;;
70450;SDS011;58869;51.982;4.450;2023-03-05T20:52:55;3.00;;;3.00;;
70450;SDS011;58869;51.982;4.450;2023-03-05T20:55:36;3.09;;;3.09;;
70450;SDS011;58869;51.982;4.450;2023-03-05T20:58:03;2.90;;;2.90;;
70450;SDS011;58869;51.982;4.450;2023-03-05T21:00:38;3.33;;;3.33;;
70450;SDS011;58869;51.982;4.450;2023-03-05T21:03:04;3.47;;;3.47;;
70450;SDS011;58869;51.982;4.450;2023-03-05T21:05:30;3.80;;;3.80;;
70450;SDS011;58869;51.982;4.450;2023-03-05T21:07:57;4.20;;;4.20;;
70450;SDS011;58869;51.982;4.450;2023-03-05T21:14:08;4.36;;;4.36;;
70450;SDS011;58869;51.982;4.450;2023-03-05T21:19:59;4.49;;;4.49;;
70450;SDS011;58869;51.982;4.450;2023-03-05T21:25:58;4.50;;;4.50;;
70450;SDS011;58869;51.982;4.450;2023-03-05T21:28:25;4.16;;;4.16;;
70450;SDS011;58869;51.982;4.450;2023-03-05T21:30:52;4.34;;;4.34;;
70450;SDS011;58869;51.982;4.450;2023-03-05T21:33:19;4.51;;;4.51;;
70450;SDS011;58869;51.982;4.450;2023-03-05T21:35:47;4.98;;;4.98;;
70450;SDS011;58869;51.982;4.450;2023-03-05T21:38:27;4.83;;;4.83;;
70450;SDS011;58869;51.982;4.450;2023-03-05T21:41:01;4.41;;;4.41;;
70450;SDS011;58869;51.982;4.450;2023-03-05T21:43:40;4.74;;;4.74;;
70450;SDS011;58869;51.982;4.450;2023-03-05T21:46:29;4.51;;;4.51;;
70450;SDS011;58869;51.982;4.450;2023-03-05T21:49:04;5.57;;;5.57;;
70450;SDS011;58869;51.982;4.450;2023-03-05T21:54:39;5.63;;;5.63;;
70450;SDS011;58869;51.982;4.450;2023-03-05T21:57:21;5.76;;;5.76;;
70450;SDS011;58869;51.982;4.450;2023-03-05T21:59:57;5.81;;;5.81;;
70450;SDS011;58869;51.982;4.450;2023-03-05T22:02:23;5.87;;;5.87;;
70450;SDS011;58869;51.982;4.450;2023-03-05T22:04:49;6.32;;;6.32;;
70450;SDS011;58869;51.982;4.450;2023-03-05T22:10:04;6.60;;;6.60;;
70450;SDS011;58869;51.982;4.450;2023-03-05T22:12:35;6.69;;;6.69;;
70450;SDS011;58869;51.982;4.450;2023-03-05T22:18:25;5.80;;;5.79;;
70450;SDS011;58869;51.982;4.450;2023-03-05T22:21:01;5.39;;;5.39;;
70450;SDS011;58869;51.982;4.450;2023-03-05T22:23:28;4.96;;;4.96;;
70450;SDS011;58869;51.982;4.450;2023-03-05T22:26:04;5.01;;;5.01;;
70450;SDS011;58869;51.982;4.450;2023-03-05T22:28:37;4.84;;;4.84;;
70450;SDS011;58869;51.982;4.450;2023-03-05T22:31:04;5.08;;;5.08;;
70450;SDS011;58869;51.982;4.450;2023-03-05T22:33:36;4.87;;;4.87;;
70450;SDS011;58869;51.982;4.450;2023-03-05T22:36:08;4.91;;;4.91;;
70450;SDS011;58869;51.982;4.450;2023-03-05T22:38:56;4.95;;;4.95;;
70450;SDS011;58869;51.982;4.450;2023-03-05T22:41:27;4.62;;;4.62;;
70450;SDS011;58869;51.982;4.450;2023-03-05T22:44:08;4.67;;;4.67;;
70450;SDS011;58869;51.982;4.450;2023-03-05T22:46:33;4.49;;;4.49;;
70450;SDS011;58869;51.982;4.450;2023-03-05T22:49:00;4.09;;;4.09;;
70450;SDS011;58869;51.982;4.450;2023-03-05T22:51:26;4.09;;;4.09;;
70450;SDS011;58869;51.982;4.450;2023-03-05T22:53:54;3.74;;;3.74;;
70450;SDS011;58869;51.982;4.450;2023-03-05T22:56:21;3.10;;;3.10;;
70450;SDS011;58869;51.982;4.450;2023-03-05T22:59:19;2.70;;;2.70;;
70450;SDS011;58869;51.982;4.450;2023-03-05T23:01:44;3.11;;;3.11;;
70450;SDS011;58869;51.982;4.450;2023-03-05T23:04:16;2.79;;;2.79;;
70450;SDS011;58869;51.982;4.450;2023-03-05T23:07:03;2.91;;;2.91;;
70450;SDS011;58869;51.982;4.450;2023-03-05T23:09:29;2.55;;;2.55;;
70450;SDS011;58869;51.982;4.450;2023-03-05T23:12:12;2.23;;;2.23;;
70450;SDS011;58869;51.982;4.450;2023-03-05T23:14:38;2.25;;;2.25;;
70450;SDS011;58869;51.982;4.450;2023-03-05T23:17:19;2.40;;;2.40;;
70450;SDS011;58869;51.982;4.450;2023-03-05T23:19:44;2.20;;;2.20;;
70450;SDS011;58869;51.982;4.450;2023-03-05T23:22:16;1.70;;;1.70;;
70450;SDS011;58869;51.982;4.450;2023-03-05T23:27:44;1.52;;;1.52;;
70450;SDS011;58869;51.982;4.450;2023-03-05T23:30:24;1.47;;;1.47;;
70450;SDS011;58869;51.982;4.450;2023-03-05T23:32:55;1.44;;;1.44;;
70450;SDS011;58869;51.982;4.450;2023-03-05T23:38:31;1.82;;;1.82;;
70450;SDS011;58869;51.982;4.450;2023-03-05T23:41:06;1.70;;;1.70;;
70450;SDS011;58869;51.982;4.450;2023-03-05T23:43:33;1.74;;;1.74;;
70450;SDS011;58869;51.982;4.450;2023-03-05T23:46:08;1.82;;;1.82;;
70450;SDS011;58869;51.982;4.450;2023-03-05T23:51:53;1.83;;;1.83;;
70450;SDS011;58869;51.982;4.450;2023-03-05T23:54:18;1.71;;;1.71;;
70450;SDS011;58869;51.982;4.450;2023-03-05T23:56:57;1.92;;;1.92;;
70450;SDS011;58869;51.982;4.450;2023-03-05T23:59:23;1.86;;;1.86;;
